sensor_id;sensor_type;location;lat;lon;timestamp;temperature;humidity
35111;DHT22;21290;50.158;8.658;2023-04-06T00:00:33;2.00;99.90
35111;DHT22;21290;50.158;8.658;2023-04-06T00:03:00;1.90;99.90
35111;DHT22;21290;50.158;8.658;2023-04-06T00:05:27;1.80;99.90
35111;DHT22;21290;50.158;8.658;2023-04-06T00:07:59;1.80;99.90
35111;DHT22;21290;50.158;8.658;2023-04-06T00:10:26;1.80;99.90
35111;DHT22;21290;50.158;8.658;2023-04-06T00:12:54;1.80;99.90
35111;DHT22;21290;50.158;8.658;2023-04-06T00:15:23;1.70;99.90
35111;DHT22;21290;50.158;8.658;2023-04-06T00:17:49;1.70;99.90
35111;DHT22;21290;50.158;8.658;2023-04-06T00:20:16;1.70;99.90
35111;DHT22;21290;50.158;8.658;2023-04-06T00:22:43;1.70;99.90
35111;DHT22;21290;50.158;8.658;2023-04-06T00:25:10;1.60;99.90
35111;DHT22;21290;50.158;8.658;2023-04-06T00:27:38;1.60;99.90
35111;DHT22;21290;50.158;8.658;2023-04-06T00:30:05;1.60;99.90
35111;DHT22;21290;50.158;8.658;2023-04-06T00:32:32;1.50;99.90
35111;DHT22;21290;50.158;8.658;2023-04-06T00:34:59;1.50;99.90
35111;DHT22;21290;50.158;8.658;2023-04-06T00:37:25;1.50;99.90
35111;DHT22;21290;50.158;8.658;2023-04-06T00:39:52;1.50;99.90
35111;DHT22;21290;50.158;8.658;2023-04-06T00:42:19;1.50;99.90
35111;DHT22;21290;50.158;8.658;2023-04-06T00:44:56;1.40;99.90
35111;DHT22;21290;50.158;8.658;2023-04-06T00:47:23;1.40;99.90
35111;DHT22;21290;50.158;8.658;2023-04-06T00:49:53;1.40;99.90
35111;DHT22;21290;50.158;8.658;2023-04-06T00:52:20;1.40;99.90
35111;DHT22;21290;50.158;8.658;2023-04-06T00:54:47;1.30;99.90
35111;DHT22;21290;50.158;8.658;2023-04-06T00:57:14;1.30;99.90
35111;DHT22;21290;50.158;8.658;2023-04-06T00:59:41;1.30;99.90
35111;DHT22;21290;50.158;8.658;2023-04-06T01:02:08;1.30;99.90
35111;DHT22;21290;50.158;8.658;2023-04-06T01:04:35;1.20;99.90
35111;DHT22;21290;50.158;8.658;2023-04-06T01:07:02;1.20;99.90
35111;DHT22;21290;50.158;8.658;2023-04-06T01:09:29;1.20;99.90
35111;DHT22;21290;50.158;8.658;2023-04-06T01:11:59;1.10;99.90
35111;DHT22;21290;50.158;8.658;2023-04-06T01:14:25;1.20;99.90
35111;DHT22;21290;50.158;8.658;2023-04-06T01:16:52;1.10;99.90
35111;DHT22;21290;50.158;8.658;2023-04-06T01:19:19;1.10;99.90
35111;DHT22;21290;50.158;8.658;2023-04-06T01:21:47;1.10;99.90
35111;DHT22;21290;50.158;8.658;2023-04-06T01:24:16;1.10;99.90
35111;DHT22;21290;50.158;8.658;2023-04-06T01:26:43;1.10;99.90
35111;DHT22;21290;50.158;8.658;2023-04-06T01:29:11;1.00;99.90
35111;DHT22;21290;50.158;8.658;2023-04-06T01:31:38;1.00;99.90
35111;DHT22;21290;50.158;8.658;2023-04-06T01:34:05;1.00;99.90
35111;DHT22;21290;50.158;8.658;2023-04-06T01:36:32;0.90;99.90
35111;DHT22;21290;50.158;8.658;2023-04-06T01:38:59;0.90;99.90
35111;DHT22;21290;50.158;8.658;2023-04-06T01:41:26;0.90;99.90
35111;DHT22;21290;50.158;8.658;2023-04-06T01:43:52;0.90;99.90
35111;DHT22;21290;50.158;8.658;2023-04-06T01:46:21;1.00;99.90
35111;DHT22;21290;50.158;8.658;2023-04-06T01:48:47;0.90;99.90
35111;DHT22;21290;50.158;8.658;2023-04-06T01:51:14;0.90;99.90
35111;DHT22;21290;50.158;8.658;2023-04-06T01:53:41;0.90;99.90
35111;DHT22;21290;50.158;8.658;2023-04-06T01:56:08;0.90;99.90
35111;DHT22;21290;50.158;8.658;2023-04-06T01:58:34;0.80;99.90
35111;DHT22;21290;50.158;8.658;2023-04-06T02:01:02;0.80;99.90
35111;DHT22;21290;50.158;8.658;2023-04-06T02:03:29;0.80;99.90
35111;DHT22;21290;50.158;8.658;2023-04-06T02:05:55;0.70;99.90
35111;DHT22;21290;50.158;8.658;2023-04-06T02:08:22;0.70;99.90
35111;DHT22;21290;50.158;8.658;2023-04-06T02:10:49;0.70;99.90
35111;DHT22;21290;50.158;8.658;2023-04-06T02:13:15;0.70;99.90
35111;DHT22;21290;50.158;8.658;2023-04-06T02:15:42;0.60;99.90
35111;DHT22;21290;50.158;8.658;2023-04-06T02:18:08;0.60;99.90
35111;DHT22;21290;50.158;8.658;2023-04-06T02:20:36;0.60;99.90
35111;DHT22;21290;50.158;8.658;2023-04-06T02:23:03;0.60;99.90
35111;DHT22;21290;50.158;8.658;2023-04-06T02:25:30;0.60;99.90
35111;DHT22;21290;50.158;8.658;2023-04-06T02:27:56;0.60;99.90
35111;DHT22;21290;50.158;8.658;2023-04-06T02:30:23;0.50;99.90
35111;DHT22;21290;50.158;8.658;2023-04-06T02:32:49;0.50;99.90
35111;DHT22;21290;50.158;8.658;2023-04-06T02:35:16;0.50;99.90
35111;DHT22;21290;50.158;8.658;2023-04-06T02:37:43;0.50;99.90
35111;DHT22;21290;50.158;8.658;2023-04-06T02:40:10;0.50;99.90
35111;DHT22;21290;50.158;8.658;2023-04-06T02:42:37;0.50;99.90
35111;DHT22;21290;50.158;8.658;2023-04-06T02:45:04;0.40;99.90
35111;DHT22;21290;50.158;8.658;2023-04-06T02:47:31;0.40;99.90
35111;DHT22;21290;50.158;8.658;2023-04-06T02:49:57;0.40;99.90
35111;DHT22;21290;50.158;8.658;2023-04-06T02:52:24;0.40;99.90
35111;DHT22;21290;50.158;8.658;2023-04-06T02:54:51;0.30;99.90
35111;DHT22;21290;50.158;8.658;2023-04-06T02:57:17;0.30;99.90
35111;DHT22;21290;50.158;8.658;2023-04-06T02:59:44;0.30;99.90
35111;DHT22;21290;50.158;8.658;2023-04-06T03:02:11;0.30;99.90
35111;DHT22;21290;50.158;8.658;2023-04-06T03:04:37;0.30;99.90
35111;DHT22;21290;50.158;8.658;2023-04-06T03:07:04;0.30;99.90
35111;DHT22;21290;50.158;8.658;2023-04-06T03:09:31;0.20;99.90
35111;DHT22;21290;50.158;8.658;2023-04-06T03:11:57;0.20;99.90
35111;DHT22;21290;50.158;8.658;2023-04-06T03:14:24;0.20;99.90
35111;DHT22;21290;50.158;8.658;2023-04-06T03:16:51;0.20;99.90
35111;DHT22;21290;50.158;8.658;2023-04-06T03:19:17;0.20;99.90
35111;DHT22;21290;50.158;8.658;2023-04-06T03:21:44;0.20;99.90
35111;DHT22;21290;50.158;8.658;2023-04-06T03:24:10;0.20;99.90
35111;DHT22;21290;50.158;8.658;2023-04-06T03:26:37;0.10;99.90
35111;DHT22;21290;50.158;8.658;2023-04-06T03:29:04;0.10;99.90
35111;DHT22;21290;50.158;8.658;2023-04-06T03:31:30;0.10;99.90
35111;DHT22;21290;50.158;8.658;2023-04-06T03:33:57;0.10;99.90
35111;DHT22;21290;50.158;8.658;2023-04-06T03:36:23;0.10;99.90
35111;DHT22;21290;50.158;8.658;2023-04-06T03:38:51;0.10;99.90
35111;DHT22;21290;50.158;8.658;2023-04-06T03:41:19;0.10;99.90
35111;DHT22;21290;50.158;8.658;2023-04-06T03:43:47;0.00;99.90
35111;DHT22;21290;50.158;8.658;2023-04-06T03:46:14;0.00;99.90
35111;DHT22;21290;50.158;8.658;2023-04-06T03:48:40;0.00;99.90
35111;DHT22;21290;50.158;8.658;2023-04-06T03:51:07;0.00;99.90
35111;DHT22;21290;50.158;8.658;2023-04-06T03:53:33;0.00;99.90
35111;DHT22;21290;50.158;8.658;2023-04-06T03:56:00;0.00;99.90
35111;DHT22;21290;50.158;8.658;2023-04-06T03:58:30;0.00;99.90
35111;DHT22;21290;50.158;8.658;2023-04-06T04:00:57;0.00;99.90
35111;DHT22;21290;50.158;8.658;2023-04-06T04:03:23;0.00;99.90
35111;DHT22;21290;50.158;8.658;2023-04-06T04:05:54;0.00;99.90
35111;DHT22;21290;50.158;8.658;2023-04-06T04:08:21;0.00;99.90
35111;DHT22;21290;50.158;8.658;2023-04-06T04:10:48;0.00;99.90
35111;DHT22;21290;50.158;8.658;2023-04-06T04:13:15;0.00;99.90
35111;DHT22;21290;50.158;8.658;2023-04-06T04:15:41;-0.10;99.90
35111;DHT22;21290;50.158;8.658;2023-04-06T04:18:08;-0.10;99.90
35111;DHT22;21290;50.158;8.658;2023-04-06T04:20:35;-0.20;99.90
35111;DHT22;21290;50.158;8.658;2023-04-06T04:23:01;-0.20;99.90
35111;DHT22;21290;50.158;8.658;2023-04-06T04:25:28;-0.20;99.90
35111;DHT22;21290;50.158;8.658;2023-04-06T04:27:54;-0.10;99.90
35111;DHT22;21290;50.158;8.658;2023-04-06T04:30:21;-0.20;99.90
35111;DHT22;21290;50.158;8.658;2023-04-06T04:32:48;-0.20;99.90
35111;DHT22;21290;50.158;8.658;2023-04-06T04:35:15;-0.20;99.90
35111;DHT22;21290;50.158;8.658;2023-04-06T04:37:41;-0.20;99.90
35111;DHT22;21290;50.158;8.658;2023-04-06T04:40:09;-0.20;99.90
35111;DHT22;21290;50.158;8.658;2023-04-06T04:42:35;-0.20;99.90
35111;DHT22;21290;50.158;8.658;2023-04-06T04:45:02;-0.20;99.90
35111;DHT22;21290;50.158;8.658;2023-04-06T04:47:29;-0.20;99.90
35111;DHT22;21290;50.158;8.658;2023-04-06T04:49:55;-0.20;99.90
35111;DHT22;21290;50.158;8.658;2023-04-06T04:52:22;-0.20;99.90
35111;DHT22;21290;50.158;8.658;2023-04-06T04:54:49;-0.20;99.90
35111;DHT22;21290;50.158;8.658;2023-04-06T04:57:15;-0.20;99.90
35111;DHT22;21290;50.158;8.658;2023-04-06T04:59:43;-0.20;99.90
35111;DHT22;21290;50.158;8.658;2023-04-06T05:02:09;-0.10;99.90
35111;DHT22;21290;50.158;8.658;2023-04-06T05:04:36;-0.10;99.90
35111;DHT22;21290;50.158;8.658;2023-04-06T05:07:09;-0.10;99.90
35111;DHT22;21290;50.158;8.658;2023-04-06T05:09:36;0.00;99.90
35111;DHT22;21290;50.158;8.658;2023-04-06T05:12:03;0.00;99.90
35111;DHT22;21290;50.158;8.658;2023-04-06T05:14:30;0.00;99.90
35111;DHT22;21290;50.158;8.658;2023-04-06T05:16:56;0.00;99.90
35111;DHT22;21290;50.158;8.658;2023-04-06T05:19:23;0.10;99.90
35111;DHT22;21290;50.158;8.658;2023-04-06T05:21:50;0.20;99.90
35111;DHT22;21290;50.158;8.658;2023-04-06T05:24:16;0.20;99.90
35111;DHT22;21290;50.158;8.658;2023-04-06T05:26:43;0.20;99.90
35111;DHT22;21290;50.158;8.658;2023-04-06T05:29:10;0.20;99.90
35111;DHT22;21290;50.158;8.658;2023-04-06T05:31:37;0.20;99.90
35111;DHT22;21290;50.158;8.658;2023-04-06T05:34:04;0.30;99.90
35111;DHT22;21290;50.158;8.658;2023-04-06T05:36:31;0.40;99.90
35111;DHT22;21290;50.158;8.658;2023-04-06T05:38:58;0.40;99.90
35111;DHT22;21290;50.158;8.658;2023-04-06T05:41:25;0.50;99.90
35111;DHT22;21290;50.158;8.658;2023-04-06T05:43:52;0.50;99.90
35111;DHT22;21290;50.158;8.658;2023-04-06T05:46:19;0.60;99.90
35111;DHT22;21290;50.158;8.658;2023-04-06T05:48:46;0.70;99.90
35111;DHT22;21290;50.158;8.658;2023-04-06T05:51:13;0.80;99.90
35111;DHT22;21290;50.158;8.658;2023-04-06T05:53:39;0.90;99.90
35111;DHT22;21290;50.158;8.658;2023-04-06T05:56:06;1.00;99.90
35111;DHT22;21290;50.158;8.658;2023-04-06T05:58:33;1.20;99.90
35111;DHT22;21290;50.158;8.658;2023-04-06T06:01:01;1.30;99.90
35111;DHT22;21290;50.158;8.658;2023-04-06T06:03:27;1.40;99.90
35111;DHT22;21290;50.158;8.658;2023-04-06T06:05:59;1.60;99.90
35111;DHT22;21290;50.158;8.658;2023-04-06T06:08:26;1.70;99.90
35111;DHT22;21290;50.158;8.658;2023-04-06T06:10:53;1.90;99.90
35111;DHT22;21290;50.158;8.658;2023-04-06T06:13:19;2.10;99.90
35111;DHT22;21290;50.158;8.658;2023-04-06T06:15:46;2.20;99.90
35111;DHT22;21290;50.158;8.658;2023-04-06T06:18:13;2.30;99.90
35111;DHT22;21290;50.158;8.658;2023-04-06T06:20:39;2.50;99.90
35111;DHT22;21290;50.158;8.658;2023-04-06T06:23:06;2.70;99.90
35111;DHT22;21290;50.158;8.658;2023-04-06T06:25:33;2.80;99.90
35111;DHT22;21290;50.158;8.658;2023-04-06T06:27:59;3.00;99.90
35111;DHT22;21290;50.158;8.658;2023-04-06T06:30:26;3.20;99.90
35111;DHT22;21290;50.158;8.658;2023-04-06T06:32:53;3.40;99.90
35111;DHT22;21290;50.158;8.658;2023-04-06T06:35:19;3.50;99.90
35111;DHT22;21290;50.158;8.658;2023-04-06T06:37:46;3.70;99.90
35111;DHT22;21290;50.158;8.658;2023-04-06T06:40:13;3.90;99.90
35111;DHT22;21290;50.158;8.658;2023-04-06T06:42:42;4.10;99.90
35111;DHT22;21290;50.158;8.658;2023-04-06T06:45:09;4.40;99.90
35111;DHT22;21290;50.158;8.658;2023-04-06T06:47:36;4.60;99.90
35111;DHT22;21290;50.158;8.658;2023-04-06T06:50:03;4.80;99.90
35111;DHT22;21290;50.158;8.658;2023-04-06T06:52:30;5.00;99.90
35111;DHT22;21290;50.158;8.658;2023-04-06T06:54:56;5.10;99.90
35111;DHT22;21290;50.158;8.658;2023-04-06T06:57:23;5.30;99.90
35111;DHT22;21290;50.158;8.658;2023-04-06T06:59:50;5.50;99.90
35111;DHT22;21290;50.158;8.658;2023-04-06T07:02:16;5.80;99.90
35111;DHT22;21290;50.158;8.658;2023-04-06T07:04:43;6.00;99.90
35111;DHT22;21290;50.158;8.658;2023-04-06T07:07:10;6.20;99.90
35111;DHT22;21290;50.158;8.658;2023-04-06T07:09:36;6.40;99.90
35111;DHT22;21290;50.158;8.658;2023-04-06T07:12:03;6.60;99.90
35111;DHT22;21290;50.158;8.658;2023-04-06T07:14:29;6.90;99.90
35111;DHT22;21290;50.158;8.658;2023-04-06T07:16:56;7.10;99.90
35111;DHT22;21290;50.158;8.658;2023-04-06T07:19:23;7.30;99.90
35111;DHT22;21290;50.158;8.658;2023-04-06T07:21:49;7.50;99.90
35111;DHT22;21290;50.158;8.658;2023-04-06T07:24:16;7.80;99.90
35111;DHT22;21290;50.158;8.658;2023-04-06T07:26:43;8.00;99.90
35111;DHT22;21290;50.158;8.658;2023-04-06T07:29:10;8.30;99.90
35111;DHT22;21290;50.158;8.658;2023-04-06T07:31:36;8.50;99.90
35111;DHT22;21290;50.158;8.658;2023-04-06T07:34:03;8.80;99.90
35111;DHT22;21290;50.158;8.658;2023-04-06T07:36:31;9.00;99.90
35111;DHT22;21290;50.158;8.658;2023-04-06T07:38:57;9.30;99.40
35111;DHT22;21290;50.158;8.658;2023-04-06T07:41:24;9.40;97.90
35111;DHT22;21290;50.158;8.658;2023-04-06T07:43:51;9.50;97.80
35111;DHT22;21290;50.158;8.658;2023-04-06T07:46:17;9.60;96.50
35111;DHT22;21290;50.158;8.658;2023-04-06T07:48:44;9.90;95.00
35111;DHT22;21290;50.158;8.658;2023-04-06T07:51:11;10.10;94.60
35111;DHT22;21290;50.158;8.658;2023-04-06T07:53:40;10.50;94.10
35111;DHT22;21290;50.158;8.658;2023-04-06T07:56:07;10.70;91.90
35111;DHT22;21290;50.158;8.658;2023-04-06T07:58:33;10.80;89.70
35111;DHT22;21290;50.158;8.658;2023-04-06T08:01:01;10.50;88.70
35111;DHT22;21290;50.158;8.658;2023-04-06T08:03:28;10.50;88.60
35111;DHT22;21290;50.158;8.658;2023-04-06T08:05:54;10.70;85.80
35111;DHT22;21290;50.158;8.658;2023-04-06T08:08:22;10.70;85.60
35111;DHT22;21290;50.158;8.658;2023-04-06T08:10:49;11.00;83.20
35111;DHT22;21290;50.158;8.658;2023-04-06T08:13:15;11.50;83.20
35111;DHT22;21290;50.158;8.658;2023-04-06T08:15:43;12.10;80.00
35111;DHT22;21290;50.158;8.658;2023-04-06T08:18:10;12.60;77.90
35111;DHT22;21290;50.158;8.658;2023-04-06T08:20:37;13.00;77.80
35111;DHT22;21290;50.158;8.658;2023-04-06T08:23:03;13.70;73.20
35111;DHT22;21290;50.158;8.658;2023-04-06T08:25:30;14.40;70.30
35111;DHT22;21290;50.158;8.658;2023-04-06T08:27:56;15.10;66.00
35111;DHT22;21290;50.158;8.658;2023-04-06T08:30:23;15.90;62.90
35111;DHT22;21290;50.158;8.658;2023-04-06T08:32:50;17.10;59.60
35111;DHT22;21290;50.158;8.658;2023-04-06T08:35:17;17.80;57.00
35111;DHT22;21290;50.158;8.658;2023-04-06T08:37:44;18.60;55.00
35111;DHT22;21290;50.158;8.658;2023-04-06T08:40:12;19.60;52.80
35111;DHT22;21290;50.158;8.658;2023-04-06T08:42:40;20.50;50.60
35111;DHT22;21290;50.158;8.658;2023-04-06T08:45:10;20.10;49.20
35111;DHT22;21290;50.158;8.658;2023-04-06T08:47:37;21.00;49.70
35111;DHT22;21290;50.158;8.658;2023-04-06T08:50:04;21.10;47.50
35111;DHT22;21290;50.158;8.658;2023-04-06T08:52:32;21.80;46.50
35111;DHT22;21290;50.158;8.658;2023-04-06T08:55:00;22.60;44.60
35111;DHT22;21290;50.158;8.658;2023-04-06T08:57:27;22.40;44.90
35111;DHT22;21290;50.158;8.658;2023-04-06T08:59:55;23.40;43.90
35111;DHT22;21290;50.158;8.658;2023-04-06T09:02:22;23.60;43.50
35111;DHT22;21290;50.158;8.658;2023-04-06T09:04:53;23.90;42.60
35111;DHT22;21290;50.158;8.658;2023-04-06T09:07:21;24.10;41.60
35111;DHT22;21290;50.158;8.658;2023-04-06T09:09:47;24.40;42.10
35111;DHT22;21290;50.158;8.658;2023-04-06T09:12:25;24.30;40.80
35111;DHT22;21290;50.158;8.658;2023-04-06T09:14:53;25.40;40.60
35111;DHT22;21290;50.158;8.658;2023-04-06T09:17:25;25.40;39.60
35111;DHT22;21290;50.158;8.658;2023-04-06T09:19:52;25.50;39.20
35111;DHT22;21290;50.158;8.658;2023-04-06T09:22:19;25.30;39.40
35111;DHT22;21290;50.158;8.658;2023-04-06T09:24:55;25.20;38.40
35111;DHT22;21290;50.158;8.658;2023-04-06T09:27:36;25.50;39.00
35111;DHT22;21290;50.158;8.658;2023-04-06T09:30:10;25.70;38.80
35111;DHT22;21290;50.158;8.658;2023-04-06T09:32:51;25.90;38.50
35111;DHT22;21290;50.158;8.658;2023-04-06T09:35:19;26.10;39.10
35111;DHT22;21290;50.158;8.658;2023-04-06T09:37:48;26.60;38.20
35111;DHT22;21290;50.158;8.658;2023-04-06T09:40:15;26.30;38.10
35111;DHT22;21290;50.158;8.658;2023-04-06T09:42:50;26.30;38.10
35111;DHT22;21290;50.158;8.658;2023-04-06T09:45:19;26.30;37.70
35111;DHT22;21290;50.158;8.658;2023-04-06T09:47:47;26.20;37.60
35111;DHT22;21290;50.158;8.658;2023-04-06T09:50:14;26.30;37.40
35111;DHT22;21290;50.158;8.658;2023-04-06T09:52:48;25.80;38.50
35111;DHT22;21290;50.158;8.658;2023-04-06T09:55:40;26.70;37.80
35111;DHT22;21290;50.158;8.658;2023-04-06T09:58:13;26.70;37.20
35111;DHT22;21290;50.158;8.658;2023-04-06T10:01:01;26.40;38.20
35111;DHT22;21290;50.158;8.658;2023-04-06T10:04:02;26.50;37.20
35111;DHT22;21290;50.158;8.658;2023-04-06T10:06:32;26.30;37.50
35111;DHT22;21290;50.158;8.658;2023-04-06T10:09:03;26.20;37.40
35111;DHT22;21290;50.158;8.658;2023-04-06T10:11:31;25.50;37.50
35111;DHT22;21290;50.158;8.658;2023-04-06T10:13:58;25.60;38.30
35111;DHT22;21290;50.158;8.658;2023-04-06T10:16:25;25.80;37.60
35111;DHT22;21290;50.158;8.658;2023-04-06T10:18:58;25.80;37.00
35111;DHT22;21290;50.158;8.658;2023-04-06T10:21:27;25.50;37.40
35111;DHT22;21290;50.158;8.658;2023-04-06T10:24:00;25.00;37.60
35111;DHT22;21290;50.158;8.658;2023-04-06T10:26:28;24.40;38.00
35111;DHT22;21290;50.158;8.658;2023-04-06T10:28:54;23.20;38.70
35111;DHT22;21290;50.158;8.658;2023-04-06T10:31:25;23.10;39.50
35111;DHT22;21290;50.158;8.658;2023-04-06T10:33:57;23.30;39.20
35111;DHT22;21290;50.158;8.658;2023-04-06T10:36:26;23.90;40.00
35111;DHT22;21290;50.158;8.658;2023-04-06T10:38:58;24.70;38.50
35111;DHT22;21290;50.158;8.658;2023-04-06T10:41:45;25.00;37.70
35111;DHT22;21290;50.158;8.658;2023-04-06T10:44:20;25.30;38.00
35111;DHT22;21290;50.158;8.658;2023-04-06T10:46:58;25.20;37.70
35111;DHT22;21290;50.158;8.658;2023-04-06T10:49:28;25.10;37.20
35111;DHT22;21290;50.158;8.658;2023-04-06T10:51:55;25.30;38.00
35111;DHT22;21290;50.158;8.658;2023-04-06T10:54:24;25.00;37.70
35111;DHT22;21290;50.158;8.658;2023-04-06T10:56:51;25.50;38.40
35111;DHT22;21290;50.158;8.658;2023-04-06T10:59:21;25.30;38.10
35111;DHT22;21290;50.158;8.658;2023-04-06T11:01:48;25.50;37.30
35111;DHT22;21290;50.158;8.658;2023-04-06T11:04:17;24.60;38.10
35111;DHT22;21290;50.158;8.658;2023-04-06T11:06:48;24.80;37.90
35111;DHT22;21290;50.158;8.658;2023-04-06T11:09:29;25.00;38.10
35111;DHT22;21290;50.158;8.658;2023-04-06T11:11:56;24.50;37.80
35111;DHT22;21290;50.158;8.658;2023-04-06T11:14:23;24.10;38.30
35111;DHT22;21290;50.158;8.658;2023-04-06T11:16:50;24.10;38.50
35111;DHT22;21290;50.158;8.658;2023-04-06T11:19:17;23.90;38.00
35111;DHT22;21290;50.158;8.658;2023-04-06T11:21:46;24.00;38.40
35111;DHT22;21290;50.158;8.658;2023-04-06T11:24:21;24.20;38.80
35111;DHT22;21290;50.158;8.658;2023-04-06T11:26:55;24.30;37.70
35111;DHT22;21290;50.158;8.658;2023-04-06T11:29:25;24.90;38.10
35111;DHT22;21290;50.158;8.658;2023-04-06T11:31:53;26.10;38.00
35111;DHT22;21290;50.158;8.658;2023-04-06T11:34:22;25.40;36.70
35111;DHT22;21290;50.158;8.658;2023-04-06T11:36:55;23.90;37.50
35111;DHT22;21290;50.158;8.658;2023-04-06T11:39:25;22.20;39.40
35111;DHT22;21290;50.158;8.658;2023-04-06T11:41:54;21.30;40.90
35111;DHT22;21290;50.158;8.658;2023-04-06T11:44:34;20.30;42.00
35111;DHT22;21290;50.158;8.658;2023-04-06T11:47:06;20.20;42.40
35111;DHT22;21290;50.158;8.658;2023-04-06T11:49:37;20.00;42.70
35111;DHT22;21290;50.158;8.658;2023-04-06T11:52:14;19.70;42.80
35111;DHT22;21290;50.158;8.658;2023-04-06T11:54:41;19.70;43.90
35111;DHT22;21290;50.158;8.658;2023-04-06T11:57:08;19.60;43.90
35111;DHT22;21290;50.158;8.658;2023-04-06T11:59:35;19.40;43.80
35111;DHT22;21290;50.158;8.658;2023-04-06T12:02:03;19.20;43.90
35111;DHT22;21290;50.158;8.658;2023-04-06T12:04:30;18.80;44.10
35111;DHT22;21290;50.158;8.658;2023-04-06T12:06:58;18.70;44.90
35111;DHT22;21290;50.158;8.658;2023-04-06T12:09:24;18.50;45.20
35111;DHT22;21290;50.158;8.658;2023-04-06T12:11:51;17.90;45.80
35111;DHT22;21290;50.158;8.658;2023-04-06T12:14:18;17.40;45.40
35111;DHT22;21290;50.158;8.658;2023-04-06T12:16:44;17.30;46.60
35111;DHT22;21290;50.158;8.658;2023-04-06T12:19:11;17.10;46.50
35111;DHT22;21290;50.158;8.658;2023-04-06T12:21:38;17.00;47.40
35111;DHT22;21290;50.158;8.658;2023-04-06T12:24:05;17.10;47.80
35111;DHT22;21290;50.158;8.658;2023-04-06T12:26:32;16.90;47.00
35111;DHT22;21290;50.158;8.658;2023-04-06T12:28:59;16.60;46.50
35111;DHT22;21290;50.158;8.658;2023-04-06T12:31:37;16.80;48.10
35111;DHT22;21290;50.158;8.658;2023-04-06T12:34:07;17.10;46.30
35111;DHT22;21290;50.158;8.658;2023-04-06T12:36:34;16.90;46.10
35111;DHT22;21290;50.158;8.658;2023-04-06T12:39:01;17.00;46.10
35111;DHT22;21290;50.158;8.658;2023-04-06T12:41:29;16.80;46.20
35111;DHT22;21290;50.158;8.658;2023-04-06T12:43:56;16.70;46.60
35111;DHT22;21290;50.158;8.658;2023-04-06T12:46:23;16.90;46.20
35111;DHT22;21290;50.158;8.658;2023-04-06T12:48:51;16.70;46.20
35111;DHT22;21290;50.158;8.658;2023-04-06T12:51:19;16.20;45.40
35111;DHT22;21290;50.158;8.658;2023-04-06T12:53:46;16.10;45.70
35111;DHT22;21290;50.158;8.658;2023-04-06T12:56:18;16.10;46.80
35111;DHT22;21290;50.158;8.658;2023-04-06T12:58:45;16.10;47.00
35111;DHT22;21290;50.158;8.658;2023-04-06T13:01:12;16.30;46.50
35111;DHT22;21290;50.158;8.658;2023-04-06T13:03:40;16.30;46.50
35111;DHT22;21290;50.158;8.658;2023-04-06T13:06:07;16.60;45.60
35111;DHT22;21290;50.158;8.658;2023-04-06T13:08:35;16.40;45.80
35111;DHT22;21290;50.158;8.658;2023-04-06T13:11:04;15.90;45.70
35111;DHT22;21290;50.158;8.658;2023-04-06T13:13:31;15.80;46.80
35111;DHT22;21290;50.158;8.658;2023-04-06T13:16:06;15.70;46.90
35111;DHT22;21290;50.158;8.658;2023-04-06T13:18:34;15.70;47.70
35111;DHT22;21290;50.158;8.658;2023-04-06T13:21:01;15.50;47.70
35111;DHT22;21290;50.158;8.658;2023-04-06T13:23:27;15.30;47.70
35111;DHT22;21290;50.158;8.658;2023-04-06T13:26:05;15.30;47.70
35111;DHT22;21290;50.158;8.658;2023-04-06T13:28:34;15.50;48.10
35111;DHT22;21290;50.158;8.658;2023-04-06T13:31:02;15.70;48.50
35111;DHT22;21290;50.158;8.658;2023-04-06T13:33:29;16.10;47.90
35111;DHT22;21290;50.158;8.658;2023-04-06T13:35:56;16.10;47.70
35111;DHT22;21290;50.158;8.658;2023-04-06T13:38:23;16.20;47.70
35111;DHT22;21290;50.158;8.658;2023-04-06T13:40:53;16.00;47.40
35111;DHT22;21290;50.158;8.658;2023-04-06T13:43:20;15.80;47.90
35111;DHT22;21290;50.158;8.658;2023-04-06T13:45:51;15.60;48.40
35111;DHT22;21290;50.158;8.658;2023-04-06T13:48:18;15.50;48.70
35111;DHT22;21290;50.158;8.658;2023-04-06T13:50:45;15.60;49.30
35111;DHT22;21290;50.158;8.658;2023-04-06T13:53:12;15.70;49.10
35111;DHT22;21290;50.158;8.658;2023-04-06T13:55:39;15.70;48.00
35111;DHT22;21290;50.158;8.658;2023-04-06T13:58:06;15.50;48.60
35111;DHT22;21290;50.158;8.658;2023-04-06T14:00:32;15.50;48.90
35111;DHT22;21290;50.158;8.658;2023-04-06T14:02:59;15.50;49.50
35111;DHT22;21290;50.158;8.658;2023-04-06T14:05:26;15.50;49.20
35111;DHT22;21290;50.158;8.658;2023-04-06T14:07:54;15.50;48.30
35111;DHT22;21290;50.158;8.658;2023-04-06T14:10:20;15.50;49.10
35111;DHT22;21290;50.158;8.658;2023-04-06T14:12:50;15.60;48.90
35111;DHT22;21290;50.158;8.658;2023-04-06T14:15:16;15.50;49.00
35111;DHT22;21290;50.158;8.658;2023-04-06T14:17:43;15.60;49.20
35111;DHT22;21290;50.158;8.658;2023-04-06T14:20:11;15.50;48.70
35111;DHT22;21290;50.158;8.658;2023-04-06T14:22:41;15.30;49.10
35111;DHT22;21290;50.158;8.658;2023-04-06T14:25:09;15.30;48.60
35111;DHT22;21290;50.158;8.658;2023-04-06T14:27:37;15.10;49.20
35111;DHT22;21290;50.158;8.658;2023-04-06T14:30:04;15.10;49.70
35111;DHT22;21290;50.158;8.658;2023-04-06T14:32:30;15.20;48.60
35111;DHT22;21290;50.158;8.658;2023-04-06T14:34:58;15.10;49.00
35111;DHT22;21290;50.158;8.658;2023-04-06T14:37:25;14.80;49.30
35111;DHT22;21290;50.158;8.658;2023-04-06T14:39:52;14.70;49.60
35111;DHT22;21290;50.158;8.658;2023-04-06T14:42:19;14.70;50.00
35111;DHT22;21290;50.158;8.658;2023-04-06T14:44:45;14.60;50.00
35111;DHT22;21290;50.158;8.658;2023-04-06T14:47:12;14.50;50.20
35111;DHT22;21290;50.158;8.658;2023-04-06T14:49:42;14.50;49.80
35111;DHT22;21290;50.158;8.658;2023-04-06T14:52:08;14.40;50.10
35111;DHT22;21290;50.158;8.658;2023-04-06T14:54:35;14.50;50.40
35111;DHT22;21290;50.158;8.658;2023-04-06T14:57:01;14.60;50.10
35111;DHT22;21290;50.158;8.658;2023-04-06T14:59:28;14.80;49.90
35111;DHT22;21290;50.158;8.658;2023-04-06T15:02:02;14.80;50.30
35111;DHT22;21290;50.158;8.658;2023-04-06T15:04:29;14.80;49.70
35111;DHT22;21290;50.158;8.658;2023-04-06T15:06:56;14.80;50.00
35111;DHT22;21290;50.158;8.658;2023-04-06T15:09:23;14.80;50.10
35111;DHT22;21290;50.158;8.658;2023-04-06T15:11:49;14.70;50.10
35111;DHT22;21290;50.158;8.658;2023-04-06T15:14:16;14.60;50.40
35111;DHT22;21290;50.158;8.658;2023-04-06T15:16:43;14.40;50.50
35111;DHT22;21290;50.158;8.658;2023-04-06T15:19:09;14.40;50.70
35111;DHT22;21290;50.158;8.658;2023-04-06T15:21:37;14.30;50.60
35111;DHT22;21290;50.158;8.658;2023-04-06T15:24:03;14.30;50.40
35111;DHT22;21290;50.158;8.658;2023-04-06T15:26:32;14.20;50.30
35111;DHT22;21290;50.158;8.658;2023-04-06T15:29:00;14.20;50.40
35111;DHT22;21290;50.158;8.658;2023-04-06T15:31:27;14.10;50.70
35111;DHT22;21290;50.158;8.658;2023-04-06T15:34:03;14.20;51.00
35111;DHT22;21290;50.158;8.658;2023-04-06T15:36:30;14.20;50.10
35111;DHT22;21290;50.158;8.658;2023-04-06T15:38:57;14.00;50.60
35111;DHT22;21290;50.158;8.658;2023-04-06T15:41:25;14.00;51.00